sensor_id;sensor_type;location;lat;lon;timestamp;P1;durP1;ratioP1;P2;durP2;ratioP2
63193;SDS011;49289;51.670;5.624;2022-12-15T00:01:14;22.10;;;12.20;;
63193;SDS011;49289;51.670;5.624;2022-12-15T00:03:02;20.50;;;11.50;;
63193;SDS011;49289;51.670;5.624;2022-12-15T00:04:50;21.00;;;12.10;;
63193;SDS011;49289;51.670;5.624;2022-12-15T00:06:39;22.10;;;13.00;;
63193;SDS011;49289;51.670;5.624;2022-12-15T00:08:28;23.00;;;12.30;;
63193;SDS011;49289;51.670;5.624;2022-12-15T00:10:16;21.40;;;12.30;;
63193;SDS011;49289;51.670;5.624;2022-12-15T00:12:04;19.80;;;12.00;;
63193;SDS011;49289;51.670;5.624;2022-12-15T00:13:52;24.00;;;12.70;;
63193;SDS011;49289;51.670;5.624;2022-12-15T00:15:40;18.20;;;11.60;;
63193;SDS011;49289;51.670;5.624;2022-12-15T00:17:28;19.40;;;11.90;;
63193;SDS011;49289;51.670;5.624;2022-12-15T00:19:16;23.60;;;13.10;;
63193;SDS011;49289;51.670;5.624;2022-12-15T00:21:05;20.70;;;12.70;;
63193;SDS011;49289;51.670;5.624;2022-12-15T00:22:52;22.20;;;11.70;;
63193;SDS011;49289;51.670;5.624;2022-12-15T00:24:40;21.40;;;11.60;;
63193;SDS011;49289;51.670;5.624;2022-12-15T00:26:29;19.90;;;12.30;;
63193;SDS011;49289;51.670;5.624;2022-12-15T00:28:17;22.40;;;12.40;;
63193;SDS011;49289;51.670;5.624;2022-12-15T00:30:05;22.60;;;12.50;;
63193;SDS011;49289;51.670;5.624;2022-12-15T00:31:52;22.00;;;12.60;;
63193;SDS011;49289;51.670;5.624;2022-12-15T00:33:39;21.40;;;12.20;;
63193;SDS011;49289;51.670;5.624;2022-12-15T00:35:26;23.50;;;12.40;;
63193;SDS011;49289;51.670;5.624;2022-12-15T00:37:15;21.10;;;12.50;;
63193;SDS011;49289;51.670;5.624;2022-12-15T00:39:04;21.20;;;12.30;;
63193;SDS011;49289;51.670;5.624;2022-12-15T00:40:51;21.40;;;12.40;;
63193;SDS011;49289;51.670;5.624;2022-12-15T00:43:19;22.40;;;12.30;;
63193;SDS011;49289;51.670;5.624;2022-12-15T00:45:07;19.70;;;11.60;;
63193;SDS011;49289;51.670;5.624;2022-12-15T00:46:55;19.20;;;11.70;;
63193;SDS011;49289;51.670;5.624;2022-12-15T00:48:43;22.60;;;12.60;;
63193;SDS011;49289;51.670;5.624;2022-12-15T00:50:31;21.50;;;12.20;;
63193;SDS011;49289;51.670;5.624;2022-12-15T00:52:19;20.60;;;11.20;;
63193;SDS011;49289;51.670;5.624;2022-12-15T00:54:08;22.40;;;12.40;;
63193;SDS011;49289;51.670;5.624;2022-12-15T00:55:55;20.50;;;12.10;;
63193;SDS011;49289;51.670;5.624;2022-12-15T00:57:43;21.80;;;12.40;;
63193;SDS011;49289;51.670;5.624;2022-12-15T00:59:31;20.20;;;12.30;;
63193;SDS011;49289;51.670;5.624;2022-12-15T01:01:19;19.20;;;11.70;;
63193;SDS011;49289;51.670;5.624;2022-12-15T01:03:11;21.20;;;12.00;;
63193;SDS011;49289;51.670;5.624;2022-12-15T01:04:58;22.10;;;12.00;;
63193;SDS011;49289;51.670;5.624;2022-12-15T01:06:45;22.30;;;11.90;;
63193;SDS011;49289;51.670;5.624;2022-12-15T01:08:32;19.80;;;12.10;;
63193;SDS011;49289;51.670;5.624;2022-12-15T01:10:19;23.40;;;12.70;;
63193;SDS011;49289;51.670;5.624;2022-12-15T01:12:06;22.30;;;12.40;;
63193;SDS011;49289;51.670;5.624;2022-12-15T01:13:54;20.80;;;12.70;;
63193;SDS011;49289;51.670;5.624;2022-12-15T01:15:43;22.80;;;12.60;;
63193;SDS011;49289;51.670;5.624;2022-12-15T01:17:31;20.50;;;12.10;;
63193;SDS011;49289;51.670;5.624;2022-12-15T01:19:20;20.70;;;12.20;;
63193;SDS011;49289;51.670;5.624;2022-12-15T01:21:09;24.20;;;13.10;;
63193;SDS011;49289;51.670;5.624;2022-12-15T01:22:57;21.80;;;12.70;;
63193;SDS011;49289;51.670;5.624;2022-12-15T01:24:44;23.40;;;12.60;;
63193;SDS011;49289;51.670;5.624;2022-12-15T01:26:32;21.30;;;12.10;;
63193;SDS011;49289;51.670;5.624;2022-12-15T01:28:20;20.50;;;12.00;;
63193;SDS011;49289;51.670;5.624;2022-12-15T01:30:10;23.70;;;12.50;;
63193;SDS011;49289;51.670;5.624;2022-12-15T01:31:57;23.20;;;13.10;;
63193;SDS011;49289;51.670;5.624;2022-12-15T01:33:45;20.80;;;12.40;;
63193;SDS011;49289;51.670;5.624;2022-12-15T01:35:34;23.50;;;12.40;;
63193;SDS011;49289;51.670;5.624;2022-12-15T01:37:23;22.30;;;12.40;;
63193;SDS011;49289;51.670;5.624;2022-12-15T01:39:11;19.40;;;11.70;;
63193;SDS011;49289;51.670;5.624;2022-12-15T01:41:00;20.90;;;12.10;;
63193;SDS011;49289;51.670;5.624;2022-12-15T01:42:46;21.60;;;12.50;;
63193;SDS011;49289;51.670;5.624;2022-12-15T01:44:35;19.90;;;11.80;;
63193;SDS011;49289;51.670;5.624;2022-12-15T01:46:23;21.30;;;12.30;;
63193;SDS011;49289;51.670;5.624;2022-12-15T01:48:11;20.70;;;12.20;;
63193;SDS011;49289;51.670;5.624;2022-12-15T01:49:57;21.30;;;12.10;;
63193;SDS011;49289;51.670;5.624;2022-12-15T01:51:45;22.10;;;12.80;;
63193;SDS011;49289;51.670;5.624;2022-12-15T01:53:32;21.80;;;11.90;;
63193;SDS011;49289;51.670;5.624;2022-12-15T01:55:21;20.80;;;11.90;;
63193;SDS011;49289;51.670;5.624;2022-12-15T01:57:09;23.40;;;12.60;;
63193;SDS011;49289;51.670;5.624;2022-12-15T01:58:57;20.60;;;12.80;;
63193;SDS011;49289;51.670;5.624;2022-12-15T02:00:44;21.70;;;13.10;;
63193;SDS011;49289;51.670;5.624;2022-12-15T02:02:33;20.90;;;12.30;;
63193;SDS011;49289;51.670;5.624;2022-12-15T02:04:21;24.30;;;13.20;;
63193;SDS011;49289;51.670;5.624;2022-12-15T02:06:08;24.40;;;13.20;;
63193;SDS011;49289;51.670;5.624;2022-12-15T02:07:57;22.80;;;12.80;;
63193;SDS011;49289;51.670;5.624;2022-12-15T02:09:46;21.70;;;13.00;;
63193;SDS011;49289;51.670;5.624;2022-12-15T02:13:44;22.80;;;12.60;;
63193;SDS011;49289;51.670;5.624;2022-12-15T02:15:32;24.70;;;13.20;;
63193;SDS011;49289;51.670;5.624;2022-12-15T02:17:21;23.80;;;12.70;;
63193;SDS011;49289;51.670;5.624;2022-12-15T02:19:14;22.30;;;12.80;;
63193;SDS011;49289;51.670;5.624;2022-12-15T02:21:04;22.80;;;12.40;;
63193;SDS011;49289;51.670;5.624;2022-12-15T02:22:56;21.80;;;12.60;;
63193;SDS011;49289;51.670;5.624;2022-12-15T02:24:50;23.20;;;13.30;;
63193;SDS011;49289;51.670;5.624;2022-12-15T02:28:51;22.40;;;12.90;;
63193;SDS011;49289;51.670;5.624;2022-12-15T02:30:40;20.30;;;12.00;;
63193;SDS011;49289;51.670;5.624;2022-12-15T02:32:33;21.90;;;12.50;;
63193;SDS011;49289;51.670;5.624;2022-12-15T02:34:20;22.30;;;12.90;;
63193;SDS011;49289;51.670;5.624;2022-12-15T02:36:14;22.20;;;13.20;;
63193;SDS011;49289;51.670;5.624;2022-12-15T02:38:00;23.30;;;12.70;;
63193;SDS011;49289;51.670;5.624;2022-12-15T02:39:48;22.60;;;12.90;;
63193;SDS011;49289;51.670;5.624;2022-12-15T02:41:38;23.60;;;13.30;;
63193;SDS011;49289;51.670;5.624;2022-12-15T02:43:26;23.10;;;13.10;;
63193;SDS011;49289;51.670;5.624;2022-12-15T02:45:15;24.20;;;13.10;;
63193;SDS011;49289;51.670;5.624;2022-12-15T02:47:11;23.20;;;13.30;;
63193;SDS011;49289;51.670;5.624;2022-12-15T02:49:03;23.80;;;13.30;;
63193;SDS011;49289;51.670;5.624;2022-12-15T02:52:58;21.80;;;13.30;;
63193;SDS011;49289;51.670;5.624;2022-12-15T02:54:53;24.70;;;13.80;;
63193;SDS011;49289;51.670;5.624;2022-12-15T02:56:42;21.40;;;13.80;;
63193;SDS011;49289;51.670;5.624;2022-12-15T02:58:30;25.40;;;14.00;;
63193;SDS011;49289;51.670;5.624;2022-12-15T03:00:16;23.90;;;13.30;;
63193;SDS011;49289;51.670;5.624;2022-12-15T03:02:05;22.70;;;13.70;;
63193;SDS011;49289;51.670;5.624;2022-12-15T03:03:51;22.90;;;13.50;;
63193;SDS011;49289;51.670;5.624;2022-12-15T03:05:38;22.90;;;13.50;;
63193;SDS011;49289;51.670;5.624;2022-12-15T03:07:27;24.10;;;13.60;;
63193;SDS011;49289;51.670;5.624;2022-12-15T03:09:15;22.00;;;13.20;;
63193;SDS011;49289;51.670;5.624;2022-12-15T03:11:02;24.00;;;13.90;;
63193;SDS011;49289;51.670;5.624;2022-12-15T03:12:49;25.20;;;13.70;;
63193;SDS011;49289;51.670;5.624;2022-12-15T03:14:36;22.90;;;14.00;;
63193;SDS011;49289;51.670;5.624;2022-12-15T03:16:23;22.50;;;13.30;;
63193;SDS011;49289;51.670;5.624;2022-12-15T03:18:10;25.20;;;14.10;;
63193;SDS011;49289;51.670;5.624;2022-12-15T03:19:58;22.60;;;13.90;;
63193;SDS011;49289;51.670;5.624;2022-12-15T03:21:48;23.50;;;13.40;;
63193;SDS011;49289;51.670;5.624;2022-12-15T03:23:36;23.70;;;13.60;;
63193;SDS011;49289;51.670;5.624;2022-12-15T03:25:24;21.40;;;12.90;;
63193;SDS011;49289;51.670;5.624;2022-12-15T03:27:11;23.50;;;13.70;;
63193;SDS011;49289;51.670;5.624;2022-12-15T03:28:58;26.20;;;14.00;;
63193;SDS011;49289;51.670;5.624;2022-12-15T03:30:45;26.40;;;13.60;;
63193;SDS011;49289;51.670;5.624;2022-12-15T03:32:32;26.30;;;13.80;;
63193;SDS011;49289;51.670;5.624;2022-12-15T03:34:19;26.00;;;13.70;;
63193;SDS011;49289;51.670;5.624;2022-12-15T03:36:06;24.10;;;13.50;;
63193;SDS011;49289;51.670;5.624;2022-12-15T03:37:55;22.20;;;14.00;;
63193;SDS011;49289;51.670;5.624;2022-12-15T03:39:43;22.80;;;14.00;;
63193;SDS011;49289;51.670;5.624;2022-12-15T03:41:31;24.80;;;14.20;;
63193;SDS011;49289;51.670;5.624;2022-12-15T03:43:19;25.20;;;14.30;;
63193;SDS011;49289;51.670;5.624;2022-12-15T03:45:06;24.00;;;14.00;;
63193;SDS011;49289;51.670;5.624;2022-12-15T03:46:54;24.10;;;13.70;;
63193;SDS011;49289;51.670;5.624;2022-12-15T03:48:41;23.70;;;13.90;;
63193;SDS011;49289;51.670;5.624;2022-12-15T03:50:28;24.00;;;13.90;;
63193;SDS011;49289;51.670;5.624;2022-12-15T03:52:15;23.90;;;14.20;;
63193;SDS011;49289;51.670;5.624;2022-12-15T03:54:03;28.30;;;14.80;;
63193;SDS011;49289;51.670;5.624;2022-12-15T03:55:51;25.20;;;14.50;;
63193;SDS011;49289;51.670;5.624;2022-12-15T03:57:40;24.50;;;14.60;;
63193;SDS011;49289;51.670;5.624;2022-12-15T03:59:28;25.60;;;14.90;;
63193;SDS011;49289;51.670;5.624;2022-12-15T04:01:17;23.50;;;14.30;;
63193;SDS011;49289;51.670;5.624;2022-12-15T04:03:03;26.70;;;15.30;;
63193;SDS011;49289;51.670;5.624;2022-12-15T04:04:50;24.90;;;13.90;;
63193;SDS011;49289;51.670;5.624;2022-12-15T04:06:37;24.20;;;14.10;;
63193;SDS011;49289;51.670;5.624;2022-12-15T04:08:24;24.70;;;14.60;;
63193;SDS011;49289;51.670;5.624;2022-12-15T04:10:13;24.90;;;14.40;;
63193;SDS011;49289;51.670;5.624;2022-12-15T04:12:00;25.60;;;14.90;;
63193;SDS011;49289;51.670;5.624;2022-12-15T04:13:50;25.00;;;14.60;;
63193;SDS011;49289;51.670;5.624;2022-12-15T04:15:38;26.60;;;14.50;;
63193;SDS011;49289;51.670;5.624;2022-12-15T04:17:25;24.30;;;14.60;;
63193;SDS011;49289;51.670;5.624;2022-12-15T04:19:12;24.50;;;14.40;;
63193;SDS011;49289;51.670;5.624;2022-12-15T04:20:59;26.60;;;15.20;;
63193;SDS011;49289;51.670;5.624;2022-12-15T04:22:48;23.90;;;14.40;;
63193;SDS011;49289;51.670;5.624;2022-12-15T04:24:38;24.90;;;14.80;;
63193;SDS011;49289;51.670;5.624;2022-12-15T04:26:28;26.00;;;14.60;;
63193;SDS011;49289;51.670;5.624;2022-12-15T04:28:16;26.00;;;14.60;;
63193;SDS011;49289;51.670;5.624;2022-12-15T04:30:03;26.00;;;15.20;;
63193;SDS011;49289;51.670;5.624;2022-12-15T04:31:54;27.10;;;14.90;;
63193;SDS011;49289;51.670;5.624;2022-12-15T04:33:44;24.50;;;14.30;;
63193;SDS011;49289;51.670;5.624;2022-12-15T04:35:32;24.60;;;14.20;;
63193;SDS011;49289;51.670;5.624;2022-12-15T04:37:22;26.20;;;15.00;;
63193;SDS011;49289;51.670;5.624;2022-12-15T04:39:11;25.40;;;14.90;;
63193;SDS011;49289;51.670;5.624;2022-12-15T04:40:59;24.50;;;14.90;;
63193;SDS011;49289;51.670;5.624;2022-12-15T04:42:48;25.50;;;14.20;;
63193;SDS011;49289;51.670;5.624;2022-12-15T04:44:36;27.00;;;14.40;;
63193;SDS011;49289;51.670;5.624;2022-12-15T04:46:26;24.80;;;14.30;;
63193;SDS011;49289;51.670;5.624;2022-12-15T04:48:00;25.10;;;14.70;;
63193;SDS011;49289;51.670;5.624;2022-12-15T04:49:48;25.10;;;14.80;;
63193;SDS011;49289;51.670;5.624;2022-12-15T04:51:38;30.20;;;15.00;;
63193;SDS011;49289;51.670;5.624;2022-12-15T04:53:26;23.70;;;14.20;;
63193;SDS011;49289;51.670;5.624;2022-12-15T04:55:14;25.80;;;14.40;;
63193;SDS011;49289;51.670;5.624;2022-12-15T04:57:01;26.90;;;14.80;;
63193;SDS011;49289;51.670;5.624;2022-12-15T04:58:48;24.80;;;14.50;;
63193;SDS011;49289;51.670;5.624;2022-12-15T05:00:36;25.20;;;14.90;;
63193;SDS011;49289;51.670;5.624;2022-12-15T05:02:24;25.00;;;14.30;;
63193;SDS011;49289;51.670;5.624;2022-12-15T05:04:12;24.20;;;14.50;;
63193;SDS011;49289;51.670;5.624;2022-12-15T05:06:00;25.30;;;14.40;;
63193;SDS011;49289;51.670;5.624;2022-12-15T05:07:47;23.00;;;14.10;;
63193;SDS011;49289;51.670;5.624;2022-12-15T05:09:35;25.10;;;14.60;;
63193;SDS011;49289;51.670;5.624;2022-12-15T05:11:25;26.60;;;15.00;;
63193;SDS011;49289;51.670;5.624;2022-12-15T05:13:13;24.70;;;14.60;;
63193;SDS011;49289;51.670;5.624;2022-12-15T05:15:01;27.50;;;15.60;;
63193;SDS011;49289;51.670;5.624;2022-12-15T05:16:48;26.40;;;14.80;;
63193;SDS011;49289;51.670;5.624;2022-12-15T05:18:36;26.80;;;15.30;;
63193;SDS011;49289;51.670;5.624;2022-12-15T05:20:23;25.50;;;15.20;;
63193;SDS011;49289;51.670;5.624;2022-12-15T05:22:11;28.10;;;15.20;;
63193;SDS011;49289;51.670;5.624;2022-12-15T05:23:58;24.40;;;14.80;;
63193;SDS011;49289;51.670;5.624;2022-12-15T05:25:46;26.10;;;15.00;;
63193;SDS011;49289;51.670;5.624;2022-12-15T05:27:34;27.90;;;14.50;;
63193;SDS011;49289;51.670;5.624;2022-12-15T05:29:22;25.40;;;14.30;;
63193;SDS011;49289;51.670;5.624;2022-12-15T05:31:11;25.00;;;14.90;;
63193;SDS011;49289;51.670;5.624;2022-12-15T05:32:58;26.50;;;15.40;;
63193;SDS011;49289;51.670;5.624;2022-12-15T05:34:50;26.40;;;15.00;;
63193;SDS011;49289;51.670;5.624;2022-12-15T05:36:38;28.90;;;15.80;;
63193;SDS011;49289;51.670;5.624;2022-12-15T05:38:25;24.70;;;15.00;;
63193;SDS011;49289;51.670;5.624;2022-12-15T05:40:13;28.10;;;15.90;;
63193;SDS011;49289;51.670;5.624;2022-12-15T05:42:00;27.30;;;15.40;;
63193;SDS011;49289;51.670;5.624;2022-12-15T05:43:47;28.70;;;15.20;;
63193;SDS011;49289;51.670;5.624;2022-12-15T05:45:35;27.80;;;16.20;;
63193;SDS011;49289;51.670;5.624;2022-12-15T05:47:23;27.70;;;15.90;;
63193;SDS011;49289;51.670;5.624;2022-12-15T05:49:13;26.70;;;15.50;;
63193;SDS011;49289;51.670;5.624;2022-12-15T05:51:01;26.20;;;15.60;;
63193;SDS011;49289;51.670;5.624;2022-12-15T05:52:47;29.60;;;16.20;;
63193;SDS011;49289;51.670;5.624;2022-12-15T05:54:34;29.60;;;16.10;;
63193;SDS011;49289;51.670;5.624;2022-12-15T05:56:21;24.00;;;14.00;;
63193;SDS011;49289;51.670;5.624;2022-12-15T05:58:09;26.90;;;15.60;;
63193;SDS011;49289;51.670;5.624;2022-12-15T05:59:56;25.00;;;15.50;;
63193;SDS011;49289;51.670;5.624;2022-12-15T06:01:45;27.30;;;15.10;;
63193;SDS011;49289;51.670;5.624;2022-12-15T06:03:32;32.60;;;16.20;;
63193;SDS011;49289;51.670;5.624;2022-12-15T06:05:20;27.30;;;15.60;;
63193;SDS011;49289;51.670;5.624;2022-12-15T06:07:08;25.70;;;15.00;;
63193;SDS011;49289;51.670;5.624;2022-12-15T06:08:57;27.00;;;15.90;;
63193;SDS011;49289;51.670;5.624;2022-12-15T06:10:45;28.80;;;15.90;;
63193;SDS011;49289;51.670;5.624;2022-12-15T06:12:36;28.70;;;16.20;;
63193;SDS011;49289;51.670;5.624;2022-12-15T06:14:23;28.40;;;15.60;;
63193;SDS011;49289;51.670;5.624;2022-12-15T06:16:11;29.60;;;16.40;;
63193;SDS011;49289;51.670;5.624;2022-12-15T06:17:58;31.00;;;16.60;;
63193;SDS011;49289;51.670;5.624;2022-12-15T06:19:46;28.00;;;16.60;;
63193;SDS011;49289;51.670;5.624;2022-12-15T06:21:34;32.40;;;17.30;;
63193;SDS011;49289;51.670;5.624;2022-12-15T06:23:23;28.50;;;16.20;;
63193;SDS011;49289;51.670;5.624;2022-12-15T06:25:11;29.40;;;16.00;;
63193;SDS011;49289;51.670;5.624;2022-12-15T06:27:00;28.70;;;16.00;;
63193;SDS011;49289;51.670;5.624;2022-12-15T06:28:48;28.50;;;16.30;;
63193;SDS011;49289;51.670;5.624;2022-12-15T06:30:36;29.10;;;17.00;;
63193;SDS011;49289;51.670;5.624;2022-12-15T06:32:24;29.80;;;16.20;;
63193;SDS011;49289;51.670;5.624;2022-12-15T06:34:14;31.20;;;17.20;;
63193;SDS011;49289;51.670;5.624;2022-12-15T06:36:02;28.80;;;15.80;;
63193;SDS011;49289;51.670;5.624;2022-12-15T06:37:49;30.10;;;16.60;;
63193;SDS011;49289;51.670;5.624;2022-12-15T06:39:36;29.00;;;16.50;;
63193;SDS011;49289;51.670;5.624;2022-12-15T06:41:23;29.50;;;17.00;;
63193;SDS011;49289;51.670;5.624;2022-12-15T06:43:10;29.10;;;16.60;;
63193;SDS011;49289;51.670;5.624;2022-12-15T06:44:58;33.70;;;16.70;;
63193;SDS011;49289;51.670;5.624;2022-12-15T06:46:46;28.50;;;16.40;;
63193;SDS011;49289;51.670;5.624;2022-12-15T06:48:34;27.90;;;16.00;;
63193;SDS011;49289;51.670;5.624;2022-12-15T06:50:22;29.70;;;16.40;;
63193;SDS011;49289;51.670;5.624;2022-12-15T06:52:11;29.50;;;15.60;;
63193;SDS011;49289;51.670;5.624;2022-12-15T06:53:59;29.50;;;16.60;;
63193;SDS011;49289;51.670;5.624;2022-12-15T06:55:47;28.00;;;16.40;;
63193;SDS011;49289;51.670;5.624;2022-12-15T06:57:35;28.50;;;16.40;;
63193;SDS011;49289;51.670;5.624;2022-12-15T06:59:23;30.30;;;16.70;;
63193;SDS011;49289;51.670;5.624;2022-12-15T07:01:11;29.40;;;17.10;;
63193;SDS011;49289;51.670;5.624;2022-12-15T07:02:59;28.10;;;16.90;;
63193;SDS011;49289;51.670;5.624;2022-12-15T07:04:47;34.60;;;17.20;;
63193;SDS011;49289;51.670;5.624;2022-12-15T07:06:37;35.60;;;15.90;;
63193;SDS011;49289;51.670;5.624;2022-12-15T07:08:25;45.90;;;17.30;;
63193;SDS011;49289;51.670;5.624;2022-12-15T07:10:13;32.50;;;16.40;;
63193;SDS011;49289;51.670;5.624;2022-12-15T07:12:00;28.70;;;16.40;;
63193;SDS011;49289;51.670;5.624;2022-12-15T07:13:47;30.20;;;15.80;;
63193;SDS011;49289;51.670;5.624;2022-12-15T07:15:34;28.20;;;16.60;;
63193;SDS011;49289;51.670;5.624;2022-12-15T07:17:21;30.80;;;16.50;;
63193;SDS011;49289;51.670;5.624;2022-12-15T07:19:08;30.40;;;16.50;;
63193;SDS011;49289;51.670;5.624;2022-12-15T07:20:55;31.90;;;17.60;;
63193;SDS011;49289;51.670;5.624;2022-12-15T07:22:43;31.60;;;16.70;;
63193;SDS011;49289;51.670;5.624;2022-12-15T07:24:34;30.00;;;16.90;;
63193;SDS011;49289;51.670;5.624;2022-12-15T07:26:21;29.50;;;16.60;;
63193;SDS011;49289;51.670;5.624;2022-12-15T07:28:09;33.30;;;17.10;;
63193;SDS011;49289;51.670;5.624;2022-12-15T07:29:58;34.30;;;18.30;;
63193;SDS011;49289;51.670;5.624;2022-12-15T07:31:45;35.00;;;18.50;;
63193;SDS011;49289;51.670;5.624;2022-12-15T07:33:34;34.20;;;18.30;;
63193;SDS011;49289;51.670;5.624;2022-12-15T07:35:19;32.20;;;18.10;;
63193;SDS011;49289;51.670;5.624;2022-12-15T07:37:06;31.00;;;18.00;;
63193;SDS011;49289;51.670;5.624;2022-12-15T07:38:55;33.20;;;18.10;;
63193;SDS011;49289;51.670;5.624;2022-12-15T07:40:43;34.70;;;18.30;;
63193;SDS011;49289;51.670;5.624;2022-12-15T07:42:30;30.00;;;18.00;;
63193;SDS011;49289;51.670;5.624;2022-12-15T07:44:17;32.20;;;18.30;;
63193;SDS011;49289;51.670;5.624;2022-12-15T07:46:04;31.70;;;17.80;;
63193;SDS011;49289;51.670;5.624;2022-12-15T07:47:53;34.40;;;18.40;;
63193;SDS011;49289;51.670;5.624;2022-12-15T07:49:40;32.20;;;18.30;;
63193;SDS011;49289;51.670;5.624;2022-12-15T07:51:27;33.20;;;18.20;;
63193;SDS011;49289;51.670;5.624;2022-12-15T07:53:14;35.30;;;18.70;;
63193;SDS011;49289;51.670;5.624;2022-12-15T07:55:01;35.50;;;19.60;;
63193;SDS011;49289;51.670;5.624;2022-12-15T07:56:49;32.80;;;18.80;;
63193;SDS011;49289;51.670;5.624;2022-12-15T07:58:37;33.70;;;19.30;;
63193;SDS011;49289;51.670;5.624;2022-12-15T08:00:26;34.20;;;18.70;;
63193;SDS011;49289;51.670;5.624;2022-12-15T08:02:14;33.40;;;19.10;;
63193;SDS011;49289;51.670;5.624;2022-12-15T08:04:02;35.20;;;19.40;;
63193;SDS011;49289;51.670;5.624;2022-12-15T08:05:51;33.50;;;18.50;;
63193;SDS011;49289;51.670;5.624;2022-12-15T08:07:40;33.60;;;18.40;;
63193;SDS011;49289;51.670;5.624;2022-12-15T08:09:28;32.00;;;18.60;;
63193;SDS011;49289;51.670;5.624;2022-12-15T08:11:16;36.60;;;20.30;;
63193;SDS011;49289;51.670;5.624;2022-12-15T08:13:04;33.60;;;18.80;;
63193;SDS011;49289;51.670;5.624;2022-12-15T08:14:51;31.10;;;18.50;;
63193;SDS011;49289;51.670;5.624;2022-12-15T08:16:38;34.40;;;19.50;;
63193;SDS011;49289;51.670;5.624;2022-12-15T08:18:25;33.00;;;19.00;;
63193;SDS011;49289;51.670;5.624;2022-12-15T08:20:13;31.80;;;18.60;;
63193;SDS011;49289;51.670;5.624;2022-12-15T08:22:00;34.50;;;19.00;;
63193;SDS011;49289;51.670;5.624;2022-12-15T08:23:47;34.70;;;19.30;;
63193;SDS011;49289;51.670;5.624;2022-12-15T08:25:34;32.80;;;18.60;;
63193;SDS011;49289;51.670;5.624;2022-12-15T08:27:22;34.30;;;18.90;;
63193;SDS011;49289;51.670;5.624;2022-12-15T08:29:11;34.00;;;19.10;;
63193;SDS011;49289;51.670;5.624;2022-12-15T08:30:59;36.00;;;19.30;;
63193;SDS011;49289;51.670;5.624;2022-12-15T08:32:50;34.10;;;18.20;;
63193;SDS011;49289;51.670;5.624;2022-12-15T08:34:37;35.00;;;19.20;;
63193;SDS011;49289;51.670;5.624;2022-12-15T08:36:24;33.30;;;19.30;;
63193;SDS011;49289;51.670;5.624;2022-12-15T08:38:11;32.60;;;18.30;;
63193;SDS011;49289;51.670;5.624;2022-12-15T08:39:58;33.10;;;19.00;;
63193;SDS011;49289;51.670;5.624;2022-12-15T08:41:46;33.30;;;20.40;;
63193;SDS011;49289;51.670;5.624;2022-12-15T08:43:35;32.40;;;18.90;;
63193;SDS011;49289;51.670;5.624;2022-12-15T08:45:23;35.30;;;20.40;;
63193;SDS011;49289;51.670;5.624;2022-12-15T08:47:10;32.70;;;19.50;;
63193;SDS011;49289;51.670;5.624;2022-12-15T08:48:57;34.50;;;20.40;;
63193;SDS011;49289;51.670;5.624;2022-12-15T08:50:47;35.00;;;20.90;;
63193;SDS011;49289;51.670;5.624;2022-12-15T08:52:34;34.50;;;20.70;;
63193;SDS011;49289;51.670;5.624;2022-12-15T08:54:22;33.70;;;19.90;;
63193;SDS011;49289;51.670;5.624;2022-12-15T08:56:12;31.70;;;19.40;;
63193;SDS011;49289;51.670;5.624;2022-12-15T08:57:58;34.40;;;19.70;;
63193;SDS011;49289;51.670;5.624;2022-12-15T08:59:48;36.50;;;20.70;;
63193;SDS011;49289;51.670;5.624;2022-12-15T09:01:37;35.00;;;20.70;;
63193;SDS011;49289;51.670;5.624;2022-12-15T09:03:26;35.50;;;20.30;;
63193;SDS011;49289;51.670;5.624;2022-12-15T09:05:15;34.80;;;20.50;;
63193;SDS011;49289;51.670;5.624;2022-12-15T09:07:03;35.90;;;21.30;;
63193;SDS011;49289;51.670;5.624;2022-12-15T09:08:52;36.40;;;20.90;;
63193;SDS011;49289;51.670;5.624;2022-12-15T09:10:44;38.30;;;21.20;;
63193;SDS011;49289;51.670;5.624;2022-12-15T09:12:32;38.80;;;20.60;;
63193;SDS011;49289;51.670;5.624;2022-12-15T09:14:21;32.40;;;19.10;;
63193;SDS011;49289;51.670;5.624;2022-12-15T09:16:10;33.80;;;20.30;;
63193;SDS011;49289;51.670;5.624;2022-12-15T09:17:56;31.40;;;18.50;;
63193;SDS011;49289;51.670;5.624;2022-12-15T09:19:44;30.50;;;18.40;;
63193;SDS011;49289;51.670;5.624;2022-12-15T09:21:33;29.70;;;17.10;;
63193;SDS011;49289;51.670;5.624;2022-12-15T09:23:20;30.90;;;17.90;;
63193;SDS011;49289;51.670;5.624;2022-12-15T09:25:09;29.80;;;17.60;;
63193;SDS011;49289;51.670;5.624;2022-12-15T09:26:56;31.40;;;18.20;;
63193;SDS011;49289;51.670;5.624;2022-12-15T09:28:43;33.60;;;17.90;;
63193;SDS011;49289;51.670;5.624;2022-12-15T09:30:31;30.80;;;17.90;;
63193;SDS011;49289;51.670;5.624;2022-12-15T09:32:20;33.10;;;18.60;;
63193;SDS011;49289;51.670;5.624;2022-12-15T09:34:10;31.40;;;18.60;;
63193;SDS011;49289;51.670;5.624;2022-12-15T09:35:55;30.50;;;19.20;;
63193;SDS011;49289;51.670;5.624;2022-12-15T09:37:42;31.60;;;19.40;;
63193;SDS011;49289;51.670;5.624;2022-12-15T09:39:30;29.20;;;18.60;;
63193;SDS011;49289;51.670;5.624;2022-12-15T09:41:21;31.80;;;18.80;;
63193;SDS011;49289;51.670;5.624;2022-12-15T09:43:09;31.90;;;19.10;;
63193;SDS011;49289;51.670;5.624;2022-12-15T09:44:57;32.70;;;19.70;;
63193;SDS011;49289;51.670;5.624;2022-12-15T09:46:50;34.50;;;19.60;;
63193;SDS011;49289;51.670;5.624;2022-12-15T09:48:40;31.90;;;19.60;;
63193;SDS011;49289;51.670;5.624;2022-12-15T09:50:32;33.40;;;20.10;;
63193;SDS011;49289;51.670;5.624;2022-12-15T09:52:17;31.00;;;19.60;;
63193;SDS011;49289;51.670;5.624;2022-12-15T09:54:05;36.60;;;21.20;;
63193;SDS011;49289;51.670;5.624;2022-12-15T09:55:56;33.70;;;21.50;;
63193;SDS011;49289;51.670;5.624;2022-12-15T09:57:42;35.00;;;20.70;;
63193;SDS011;49289;51.670;5.624;2022-12-15T09:59:30;34.60;;;20.70;;
63193;SDS011;49289;51.670;5.624;2022-12-15T10:01:22;37.60;;;21.60;;
63193;SDS011;49289;51.670;5.624;2022-12-15T10:05:21;32.80;;;19.70;;
63193;SDS011;49289;51.670;5.624;2022-12-15T10:07:11;37.20;;;20.80;;
63193;SDS011;49289;51.670;5.624;2022-12-15T10:08:59;38.70;;;22.00;;
63193;SDS011;49289;51.670;5.624;2022-12-15T10:10:49;35.90;;;20.70;;
63193;SDS011;49289;51.670;5.624;2022-12-15T10:12:36;33.60;;;20.20;;
63193;SDS011;49289;51.670;5.624;2022-12-15T10:14:26;33.40;;;20.50;;
63193;SDS011;49289;51.670;5.624;2022-12-15T10:16:19;33.60;;;20.10;;
63193;SDS011;49289;51.670;5.624;2022-12-15T10:18:09;33.60;;;19.30;;
63193;SDS011;49289;51.670;5.624;2022-12-15T10:19:58;33.70;;;19.50;;
63193;SDS011;49289;51.670;5.624;2022-12-15T10:21:44;33.00;;;20.20;;
63193;SDS011;49289;51.670;5.624;2022-12-15T10:23:31;32.20;;;19.20;;
63193;SDS011;49289;51.670;5.624;2022-12-15T10:25:22;31.00;;;19.40;;
63193;SDS011;49289;51.670;5.624;2022-12-15T10:27:12;31.30;;;18.40;;
63193;SDS011;49289;51.670;5.624;2022-12-15T10:29:20;31.20;;;19.90;;
63193;SDS011;49289;51.670;5.624;2022-12-15T10:31:11;31.60;;;19.30;;
63193;SDS011;49289;51.670;5.624;2022-12-15T10:33:00;32.70;;;20.00;;
63193;SDS011;49289;51.670;5.624;2022-12-15T10:34:47;34.00;;;20.60;;
63193;SDS011;49289;51.670;5.624;2022-12-15T10:36:35;37.50;;;20.40;;
63193;SDS011;49289;51.670;5.624;2022-12-15T10:38:29;36.70;;;21.30;;
63193;SDS011;49289;51.670;5.624;2022-12-15T10:42:24;37.30;;;21.80;;
63193;SDS011;49289;51.670;5.624;2022-12-15T10:44:20;34.50;;;21.20;;